createdAt,value
2023-07-22T00:03:13.502Z,17.24
2023-07-22T00:08:14.986Z,17.21
2023-07-22T00:13:16.355Z,17.19
2023-07-22T00:18:17.699Z,17.15
2023-07-22T00:23:19.133Z,17.07
2023-07-22T00:28:20.599Z,16.98
2023-07-22T00:33:22.162Z,16.95
2023-07-22T00:38:23.598Z,16.88
2023-07-22T00:43:26.799Z,16.76
2023-07-22T00:48:28.899Z,16.72
2023-07-22T00:53:30.333Z,16.65
2023-07-22T00:58:32.068Z,16.54
2023-07-22T01:03:33.542Z,16.42
2023-07-22T01:08:34.930Z,16.44
2023-07-22T01:13:36.290Z,16.43
2023-07-22T01:18:38.892Z,16.42
2023-07-22T01:23:40.423Z,16.36
2023-07-22T01:28:41.773Z,16.26
2023-07-22T01:33:43.128Z,16.13
2023-07-22T01:38:44.456Z,15.85
2023-07-22T01:43:45.806Z,15.80
2023-07-22T01:48:47.145Z,15.79
2023-07-22T01:53:49.131Z,15.73
2023-07-22T01:58:50.557Z,15.63
2023-07-22T02:03:51.987Z,15.56
2023-07-22T02:08:53.445Z,15.47
2023-07-22T02:13:54.806Z,15.43
2023-07-22T02:18:56.151Z,15.38
2023-07-22T02:23:57.599Z,15.35
2023-07-22T02:28:59.142Z,15.31
2023-07-22T02:34:00.555Z,15.24
2023-07-22T02:39:01.946Z,15.14
2023-07-22T02:44:04.666Z,15.06
2023-07-22T02:49:06.305Z,14.95
2023-07-22T02:54:07.741Z,14.89
2023-07-22T02:59:10.660Z,14.80
2023-07-22T03:04:13.602Z,14.78
2023-07-22T03:09:14.995Z,14.68
2023-07-22T03:14:16.390Z,14.59
2023-07-22T03:19:17.767Z,14.40
2023-07-22T03:24:19.183Z,14.19
2023-07-22T03:29:20.557Z,14.03
2023-07-22T03:34:21.979Z,13.85
2023-07-22T03:39:23.615Z,13.84
2023-07-22T03:44:25.551Z,13.91
2023-07-22T03:49:26.954Z,13.86
2023-07-22T03:54:28.309Z,13.92
2023-07-22T03:59:29.777Z,13.95
2023-07-22T04:04:31.198Z,13.96
2023-07-22T04:09:32.574Z,13.97
2023-07-22T04:14:34.194Z,13.95
2023-07-22T04:19:35.720Z,13.86
2023-07-22T04:24:37.219Z,13.96
2023-07-22T04:29:38.641Z,14.06
2023-07-22T04:34:40.534Z,14.19
2023-07-22T04:39:41.911Z,14.27
2023-07-22T04:44:43.397Z,14.36
2023-07-22T04:49:44.768Z,14.44
2023-07-22T04:54:48.517Z,14.44
2023-07-22T04:59:49.912Z,14.59
2023-07-22T05:04:51.264Z,14.71
2023-07-22T05:09:52.784Z,14.80
2023-07-22T05:14:54.169Z,14.89
2023-07-22T05:19:55.519Z,15.05
2023-07-22T05:24:57.449Z,15.17
2023-07-22T05:29:58.890Z,15.30
2023-07-22T05:35:00.330Z,15.40
2023-07-22T05:40:02.710Z,15.53
2023-07-22T05:45:04.733Z,15.70
2023-07-22T05:50:07.577Z,15.80
2023-07-22T05:55:09.136Z,15.94
2023-07-22T06:00:13.908Z,16.10
2023-07-22T06:05:15.541Z,16.35
2023-07-22T06:10:16.976Z,16.60
2023-07-22T06:15:18.591Z,16.72
2023-07-22T06:20:19.981Z,16.98
2023-07-22T06:25:21.619Z,17.11
2023-07-22T06:30:23.207Z,17.32
2023-07-22T06:35:24.584Z,17.51
2023-07-22T06:40:26.391Z,17.70
2023-07-22T06:45:28.312Z,17.93
2023-07-22T06:50:29.690Z,18.10
2023-07-22T06:55:31.827Z,18.33
2023-07-22T07:00:33.256Z,18.52
2023-07-22T07:05:35.919Z,18.65
2023-07-22T07:10:40.015Z,18.88
2023-07-22T07:15:41.681Z,19.07
2023-07-22T07:20:43.579Z,19.30
2023-07-22T07:25:45.608Z,19.35
2023-07-22T07:30:46.997Z,19.58
2023-07-22T07:35:48.470Z,19.73
2023-07-22T07:40:58.246Z,20.00
2023-07-22T07:46:22.970Z,20.23
2023-07-22T07:51:27.508Z,20.31
2023-07-22T07:56:30.204Z,20.56
2023-07-22T08:01:31.944Z,20.76
2023-07-22T08:06:34.094Z,20.88
2023-07-22T08:11:35.477Z,20.95
2023-07-22T08:16:36.990Z,20.90
2023-07-22T08:21:39.454Z,21.00
2023-07-22T08:26:40.837Z,21.16
2023-07-22T08:31:45.249Z,21.42
2023-07-22T08:36:46.659Z,21.48
2023-07-22T08:41:51.281Z,21.73
2023-07-22T08:46:57.083Z,21.88
2023-07-22T08:51:59.224Z,22.25
2023-07-22T08:57:00.728Z,22.59
2023-07-22T09:02:02.489Z,22.75
2023-07-22T09:07:04.245Z,22.58
2023-07-22T09:12:07.148Z,22.48
2023-07-22T09:17:08.548Z,22.85
2023-07-22T09:22:10.402Z,23.02
2023-07-22T09:27:11.761Z,23.14
2023-07-22T09:32:13.164Z,23.31
2023-07-22T09:37:14.563Z,23.45
2023-07-22T09:42:25.582Z,23.52
2023-07-22T09:47:27.277Z,23.83
2023-07-22T09:52:30.021Z,24.18
2023-07-22T09:57:34.090Z,24.37
2023-07-22T10:02:37.037Z,24.41
2023-07-22T10:07:40.286Z,24.39
2023-07-22T10:12:42.996Z,24.40
2023-07-22T10:17:45.603Z,24.38
2023-07-22T10:22:48.547Z,24.37
2023-07-22T10:27:53.244Z,24.72
2023-07-22T10:32:55.316Z,24.90
2023-07-22T10:37:57.349Z,25.11
2023-07-22T10:43:06.963Z,25.23
2023-07-22T10:48:13.894Z,25.62
2023-07-22T10:53:21.198Z,25.68
2023-07-22T10:58:24.721Z,25.91
2023-07-22T11:03:26.137Z,26.41
2023-07-22T11:08:38.888Z,26.57
2023-07-22T11:13:42.025Z,26.18
2023-07-22T11:18:43.509Z,26.48
2023-07-22T11:23:44.977Z,26.16
2023-07-22T11:28:47.699Z,26.00
2023-07-22T11:33:49.419Z,25.71
2023-07-22T11:38:51.138Z,25.67
2023-07-22T11:43:52.732Z,25.62
2023-07-22T11:48:55.696Z,25.39
2023-07-22T11:53:57.091Z,25.37
2023-07-22T11:58:58.976Z,25.59
2023-07-22T12:04:00.992Z,25.69
2023-07-22T12:09:02.757Z,25.86
2023-07-22T12:14:15.145Z,25.86
2023-07-22T12:19:17.032Z,26.27
2023-07-22T12:24:18.844Z,26.27
2023-07-22T12:29:20.551Z,26.57
2023-07-22T12:34:21.936Z,26.65
2023-07-22T12:39:23.299Z,27.01
2023-07-22T12:44:24.698Z,27.30
2023-07-22T12:49:26.781Z,27.41
2023-07-22T12:54:28.172Z,27.60
2023-07-22T12:59:29.594Z,27.89
2023-07-22T13:04:30.959Z,27.98
2023-07-22T13:09:32.352Z,28.33
2023-07-22T13:14:33.699Z,28.31
2023-07-22T13:19:35.056Z,28.57
2023-07-22T13:24:36.694Z,28.35
2023-07-22T13:29:38.197Z,28.73
2023-07-22T13:34:39.898Z,28.98
2023-07-22T13:39:41.370Z,28.98
2023-07-22T13:44:43.780Z,29.32
2023-07-22T13:49:45.185Z,29.70
2023-07-22T13:54:46.834Z,30.08
2023-07-22T13:59:48.228Z,30.25
2023-07-22T14:04:49.799Z,30.33
2023-07-22T14:09:51.242Z,30.51
2023-07-22T14:14:52.684Z,30.59
2023-07-22T14:19:54.068Z,31.05
2023-07-22T14:24:55.455Z,30.60
2023-07-22T14:29:56.875Z,30.46
2023-07-22T14:34:58.274Z,30.35
2023-07-22T14:40:00.223Z,29.66
2023-07-22T14:45:01.640Z,29.77
2023-07-22T14:50:05.704Z,29.66
2023-07-22T14:55:07.608Z,29.28
2023-07-22T15:00:11.876Z,29.51
2023-07-22T15:05:13.484Z,29.38
2023-07-22T15:10:16.130Z,29.63
2023-07-22T15:15:18.932Z,29.39
2023-07-22T15:20:20.511Z,28.57
2023-07-22T15:25:21.888Z,28.75
2023-07-22T15:30:23.349Z,29.12
2023-07-22T15:35:24.971Z,29.54
2023-07-22T15:40:26.577Z,30.03
2023-07-22T15:45:28.062Z,30.16
2023-07-22T15:50:29.683Z,30.34
2023-07-22T15:55:31.048Z,30.17
2023-07-22T16:00:32.623Z,29.83
2023-07-22T16:05:34.034Z,29.73
2023-07-22T16:10:35.711Z,30.09
2023-07-22T16:15:37.456Z,30.20
2023-07-22T16:20:39.216Z,29.64
2023-07-22T16:25:40.619Z,29.62
2023-07-22T16:30:42.005Z,30.16
2023-07-22T16:35:43.738Z,29.61
2023-07-22T16:40:45.157Z,29.22
2023-07-22T16:45:46.618Z,29.10
2023-07-22T16:50:48.018Z,28.93
2023-07-22T16:55:49.428Z,28.99
2023-07-22T17:00:50.878Z,29.15
2023-07-22T17:05:52.260Z,29.27
2023-07-22T17:10:54.022Z,29.26
2023-07-22T17:15:55.596Z,29.21
2023-07-22T17:20:56.982Z,28.83
2023-07-22T17:25:58.438Z,28.99
2023-07-22T17:31:00.830Z,28.81
2023-07-22T17:36:02.226Z,28.56
2023-07-22T17:41:03.684Z,28.51
2023-07-22T17:46:05.813Z,28.64
2023-07-22T17:51:07.280Z,28.55
2023-07-22T17:56:08.648Z,28.29
2023-07-22T18:01:10.044Z,27.92
2023-07-22T18:06:11.474Z,27.63
2023-07-22T18:11:12.820Z,27.50
2023-07-22T18:16:14.187Z,27.29
2023-07-22T18:21:16.235Z,27.17
2023-07-22T18:26:17.891Z,26.88
2023-07-22T18:31:20.970Z,26.64
2023-07-22T18:36:22.508Z,26.52
2023-07-22T18:41:24.050Z,26.34
2023-07-22T18:46:25.593Z,26.14
2023-07-22T18:51:32.602Z,25.91
2023-07-22T18:56:33.975Z,25.78
2023-07-22T19:01:35.426Z,25.80
2023-07-22T19:06:36.836Z,25.59
2023-07-22T19:11:38.267Z,25.53
2023-07-22T19:16:39.928Z,25.42
2023-07-22T19:21:41.325Z,25.25
2023-07-22T19:26:42.685Z,25.30
2023-07-22T19:31:44.218Z,25.17
2023-07-22T19:36:45.801Z,24.89
2023-07-22T19:41:47.201Z,24.86
2023-07-22T19:46:48.657Z,24.78
2023-07-22T19:51:50.098Z,24.76
2023-07-22T19:56:51.489Z,24.68
2023-07-22T20:01:52.917Z,24.56
2023-07-22T20:06:54.348Z,24.56
2023-07-22T20:11:55.743Z,24.58
2023-07-22T20:16:57.163Z,24.61
2023-07-22T20:21:58.573Z,24.57
2023-07-22T20:26:59.944Z,24.54
2023-07-22T20:32:03.637Z,24.48
2023-07-22T20:37:06.783Z,24.40
2023-07-22T20:42:08.145Z,24.33
2023-07-22T20:47:09.602Z,24.23
2023-07-22T20:52:11.020Z,24.18
2023-07-22T20:57:12.626Z,24.09
2023-07-22T21:02:14.260Z,24.01
2023-07-22T21:07:15.874Z,23.91
2023-07-22T21:12:17.313Z,23.86
2023-07-22T21:17:18.694Z,23.82
2023-07-22T21:22:20.059Z,23.75
2023-07-22T21:27:26.106Z,23.66
2023-07-22T21:32:35.883Z,23.58
2023-07-22T21:37:37.314Z,23.50
2023-07-22T21:42:38.698Z,23.35
2023-07-22T21:47:40.183Z,23.16
2023-07-22T21:52:42.427Z,23.08
2023-07-22T21:57:46.171Z,23.00
2023-07-22T22:02:47.662Z,22.84
2023-07-22T22:07:50.352Z,22.71
2023-07-22T22:12:51.749Z,22.59
2023-07-22T22:17:59.998Z,22.54
2023-07-22T22:23:04.077Z,22.48
2023-07-22T22:28:05.554Z,22.40
2023-07-22T22:33:06.981Z,22.29
2023-07-22T22:38:08.418Z,22.10
2023-07-22T22:43:09.811Z,22.01
2023-07-22T22:48:11.172Z,22.01
2023-07-22T22:53:12.714Z,21.99
2023-07-22T22:58:14.084Z,21.98
2023-07-22T23:03:15.635Z,21.89
2023-07-22T23:08:17.159Z,21.79
2023-07-22T23:13:18.570Z,21.77
2023-07-22T23:18:21.174Z,21.69
2023-07-22T23:23:22.798Z,21.62
2023-07-22T23:28:24.224Z,21.53
2023-07-22T23:33:29.258Z,21.51
2023-07-22T23:38:32.642Z,21.43
2023-07-22T23:43:34.056Z,21.29
2023-07-22T23:48:35.460Z,21.23
2023-07-22T23:53:36.886Z,21.14
2023-07-22T23:58:38.239Z,21.09
